sensor_id;sensor_type;location;lat;lon;timestamp;temperature;humidity
30244;DHT22;64022;53.652;9.792;2023-03-24T00:00:05;21.30;62.20
30244;DHT22;64022;53.652;9.792;2023-03-24T00:02:35;21.30;62.20
30244;DHT22;64022;53.652;9.792;2023-03-24T00:05:03;21.30;62.20
30244;DHT22;64022;53.652;9.792;2023-03-24T00:07:30;21.30;62.20
30244;DHT22;64022;53.652;9.792;2023-03-24T00:09:58;21.30;62.20
30244;DHT22;64022;53.652;9.792;2023-03-24T00:12:24;21.30;62.20
30244;DHT22;64022;53.652;9.792;2023-03-24T00:14:50;21.40;62.20
30244;DHT22;64022;53.652;9.792;2023-03-24T00:17:19;21.30;62.20
30244;DHT22;64022;53.652;9.792;2023-03-24T00:19:50;21.30;62.20
30244;DHT22;64022;53.652;9.792;2023-03-24T00:22:16;21.30;62.10
30244;DHT22;64022;53.652;9.792;2023-03-24T00:24:42;21.30;61.90
30244;DHT22;64022;53.652;9.792;2023-03-24T00:27:11;21.30;62.20
30244;DHT22;64022;53.652;9.792;2023-03-24T00:29:38;21.30;62.20
30244;DHT22;64022;53.652;9.792;2023-03-24T00:32:05;21.30;62.20
30244;DHT22;64022;53.652;9.792;2023-03-24T00:34:32;21.30;62.70
30244;DHT22;64022;53.652;9.792;2023-03-24T00:36:58;21.30;61.90
30244;DHT22;64022;53.652;9.792;2023-03-24T00:39:24;21.30;62.20
30244;DHT22;64022;53.652;9.792;2023-03-24T00:41:49;21.30;62.20
30244;DHT22;64022;53.652;9.792;2023-03-24T00:44:15;21.30;62.20
30244;DHT22;64022;53.652;9.792;2023-03-24T00:46:48;21.30;62.20
30244;DHT22;64022;53.652;9.792;2023-03-24T00:49:21;21.30;62.20
30244;DHT22;64022;53.652;9.792;2023-03-24T00:52:11;21.30;62.10
30244;DHT22;64022;53.652;9.792;2023-03-24T00:54:38;21.30;62.10
30244;DHT22;64022;53.652;9.792;2023-03-24T00:57:07;21.30;62.10
30244;DHT22;64022;53.652;9.792;2023-03-24T00:59:34;21.30;62.10
30244;DHT22;64022;53.652;9.792;2023-03-24T01:02:07;21.30;62.10
30244;DHT22;64022;53.652;9.792;2023-03-24T01:04:37;21.30;62.10
30244;DHT22;64022;53.652;9.792;2023-03-24T01:07:04;21.30;62.10
30244;DHT22;64022;53.652;9.792;2023-03-24T01:09:30;21.30;62.00
30244;DHT22;64022;53.652;9.792;2023-03-24T01:11:56;21.30;62.50
30244;DHT22;64022;53.652;9.792;2023-03-24T01:14:22;21.30;62.00
30244;DHT22;64022;53.652;9.792;2023-03-24T01:16:48;21.30;62.50
30244;DHT22;64022;53.652;9.792;2023-03-24T01:19:14;21.30;62.00
30244;DHT22;64022;53.652;9.792;2023-03-24T01:21:39;21.30;62.00
30244;DHT22;64022;53.652;9.792;2023-03-24T01:24:07;21.30;62.00
30244;DHT22;64022;53.652;9.792;2023-03-24T01:26:33;21.30;62.00
30244;DHT22;64022;53.652;9.792;2023-03-24T01:28:58;21.30;62.00
30244;DHT22;64022;53.652;9.792;2023-03-24T01:31:24;21.30;62.00
30244;DHT22;64022;53.652;9.792;2023-03-24T01:33:50;21.30;62.00
30244;DHT22;64022;53.652;9.792;2023-03-24T01:36:15;21.30;62.00
30244;DHT22;64022;53.652;9.792;2023-03-24T01:38:41;21.30;62.00
30244;DHT22;64022;53.652;9.792;2023-03-24T01:41:07;21.30;61.90
30244;DHT22;64022;53.652;9.792;2023-03-24T01:43:33;21.30;61.90
30244;DHT22;64022;53.652;9.792;2023-03-24T01:48:32;21.30;62.00
30244;DHT22;64022;53.652;9.792;2023-03-24T01:51:21;21.30;61.90
30244;DHT22;64022;53.652;9.792;2023-03-24T01:56:56;21.30;61.90
30244;DHT22;64022;53.652;9.792;2023-03-24T01:59:27;21.30;62.00
30244;DHT22;64022;53.652;9.792;2023-03-24T02:01:54;21.30;62.00
30244;DHT22;64022;53.652;9.792;2023-03-24T02:04:29;21.30;61.90
30244;DHT22;64022;53.652;9.792;2023-03-24T02:06:56;21.30;61.90
30244;DHT22;64022;53.652;9.792;2023-03-24T02:09:23;21.30;61.90
30244;DHT22;64022;53.652;9.792;2023-03-24T02:11:49;21.30;61.90
30244;DHT22;64022;53.652;9.792;2023-03-24T02:14:16;21.30;61.90
30244;DHT22;64022;53.652;9.792;2023-03-24T02:22:20;21.20;61.90
30244;DHT22;64022;53.652;9.792;2023-03-24T02:35:27;21.20;61.90
30244;DHT22;64022;53.652;9.792;2023-03-24T02:38:22;21.20;61.80
30244;DHT22;64022;53.652;9.792;2023-03-24T02:44:05;21.20;61.80
30244;DHT22;64022;53.652;9.792;2023-03-24T02:46:48;21.20;61.70
30244;DHT22;64022;53.652;9.792;2023-03-24T02:52:23;21.20;61.80
30244;DHT22;64022;53.652;9.792;2023-03-24T02:55:31;21.20;61.70
30244;DHT22;64022;53.652;9.792;2023-03-24T02:57:51;21.20;61.80
30244;DHT22;64022;53.652;9.792;2023-03-24T03:00:23;21.20;61.80
30244;DHT22;64022;53.652;9.792;2023-03-24T03:03:13;21.20;61.80
30244;DHT22;64022;53.652;9.792;2023-03-24T03:05:44;21.20;61.80
30244;DHT22;64022;53.652;9.792;2023-03-24T03:08:13;21.20;61.80
30244;DHT22;64022;53.652;9.792;2023-03-24T03:10:43;21.20;61.80
30244;DHT22;64022;53.652;9.792;2023-03-24T03:13:25;21.20;61.70
30244;DHT22;64022;53.652;9.792;2023-03-24T03:15:57;21.20;61.70
30244;DHT22;64022;53.652;9.792;2023-03-24T03:18:31;21.20;61.70
30244;DHT22;64022;53.652;9.792;2023-03-24T03:21:01;21.20;61.70
30244;DHT22;64022;53.652;9.792;2023-03-24T03:23:37;21.20;61.70
30244;DHT22;64022;53.652;9.792;2023-03-24T03:26:07;21.20;61.70
30244;DHT22;64022;53.652;9.792;2023-03-24T03:28:40;21.20;61.80
30244;DHT22;64022;53.652;9.792;2023-03-24T03:31:12;21.20;61.70
30244;DHT22;64022;53.652;9.792;2023-03-24T03:33:45;21.20;61.70
30244;DHT22;64022;53.652;9.792;2023-03-24T03:36:19;21.30;61.70
30244;DHT22;64022;53.652;9.792;2023-03-24T03:38:57;21.20;61.70
30244;DHT22;64022;53.652;9.792;2023-03-24T03:41:24;21.20;61.70
30244;DHT22;64022;53.652;9.792;2023-03-24T03:43:50;21.20;61.60
30244;DHT22;64022;53.652;9.792;2023-03-24T03:46:16;21.20;61.60
30244;DHT22;64022;53.652;9.792;2023-03-24T03:48:42;21.20;61.60
30244;DHT22;64022;53.652;9.792;2023-03-24T03:51:09;21.20;61.60
30244;DHT22;64022;53.652;9.792;2023-03-24T03:53:45;21.20;61.60
30244;DHT22;64022;53.652;9.792;2023-03-24T03:56:13;21.20;61.60
30244;DHT22;64022;53.652;9.792;2023-03-24T03:58:43;21.20;61.60
30244;DHT22;64022;53.652;9.792;2023-03-24T04:01:13;21.20;61.60
30244;DHT22;64022;53.652;9.792;2023-03-24T04:09:38;21.20;61.50
30244;DHT22;64022;53.652;9.792;2023-03-24T04:12:47;21.20;61.50
30244;DHT22;64022;53.652;9.792;2023-03-24T04:15:32;21.20;61.50
30244;DHT22;64022;53.652;9.792;2023-03-24T04:20:42;21.20;61.70
30244;DHT22;64022;53.652;9.792;2023-03-24T04:23:27;21.20;61.60
30244;DHT22;64022;53.652;9.792;2023-03-24T04:29:17;21.20;61.60
30244;DHT22;64022;53.652;9.792;2023-03-24T04:31:50;21.20;61.50
30244;DHT22;64022;53.652;9.792;2023-03-24T04:37:30;21.20;61.60
30244;DHT22;64022;53.652;9.792;2023-03-24T04:40:06;21.20;61.70
30244;DHT22;64022;53.652;9.792;2023-03-24T04:42:40;21.20;61.70
30244;DHT22;64022;53.652;9.792;2023-03-24T04:45:07;21.20;61.70
30244;DHT22;64022;53.652;9.792;2023-03-24T04:47:40;21.20;61.80
30244;DHT22;64022;53.652;9.792;2023-03-24T04:50:09;21.20;61.70
30244;DHT22;64022;53.652;9.792;2023-03-24T04:52:38;21.20;61.70
30244;DHT22;64022;53.652;9.792;2023-03-24T04:57:49;21.20;61.60
30244;DHT22;64022;53.652;9.792;2023-03-24T05:00:16;21.20;61.70
30244;DHT22;64022;53.652;9.792;2023-03-24T05:02:42;21.20;61.50
30244;DHT22;64022;53.652;9.792;2023-03-24T05:05:10;21.20;61.80
30244;DHT22;64022;53.652;9.792;2023-03-24T05:07:35;21.20;61.80
30244;DHT22;64022;53.652;9.792;2023-03-24T05:10:01;21.20;61.80
30244;DHT22;64022;53.652;9.792;2023-03-24T05:12:27;21.20;61.80
30244;DHT22;64022;53.652;9.792;2023-03-24T05:14:52;21.20;61.80
30244;DHT22;64022;53.652;9.792;2023-03-24T05:17:18;21.20;61.80
30244;DHT22;64022;53.652;9.792;2023-03-24T05:19:43;21.20;61.80
30244;DHT22;64022;53.652;9.792;2023-03-24T05:22:09;21.20;61.80
30244;DHT22;64022;53.652;9.792;2023-03-24T05:24:35;21.20;61.80
30244;DHT22;64022;53.652;9.792;2023-03-24T05:27:00;21.20;61.80
30244;DHT22;64022;53.652;9.792;2023-03-24T05:29:26;21.20;61.80
30244;DHT22;64022;53.652;9.792;2023-03-24T05:31:51;21.20;61.80
30244;DHT22;64022;53.652;9.792;2023-03-24T05:34:17;21.20;61.80
30244;DHT22;64022;53.652;9.792;2023-03-24T05:36:42;21.20;61.80
30244;DHT22;64022;53.652;9.792;2023-03-24T05:39:08;21.20;61.80
30244;DHT22;64022;53.652;9.792;2023-03-24T05:41:33;21.20;61.90
30244;DHT22;64022;53.652;9.792;2023-03-24T05:43:59;21.20;61.80
30244;DHT22;64022;53.652;9.792;2023-03-24T05:46:24;21.20;61.80
30244;DHT22;64022;53.652;9.792;2023-03-24T05:48:50;21.20;61.90
30244;DHT22;64022;53.652;9.792;2023-03-24T05:51:16;21.20;61.90
30244;DHT22;64022;53.652;9.792;2023-03-24T05:53:41;21.20;61.90
30244;DHT22;64022;53.652;9.792;2023-03-24T05:56:07;21.20;61.90
30244;DHT22;64022;53.652;9.792;2023-03-24T05:58:36;21.20;61.90
30244;DHT22;64022;53.652;9.792;2023-03-24T06:01:09;21.20;61.90
30244;DHT22;64022;53.652;9.792;2023-03-24T06:03:36;21.20;61.90
30244;DHT22;64022;53.652;9.792;2023-03-24T06:06:06;21.20;61.90
30244;DHT22;64022;53.652;9.792;2023-03-24T06:08:32;21.20;61.90
30244;DHT22;64022;53.652;9.792;2023-03-24T06:11:02;21.20;61.90
30244;DHT22;64022;53.652;9.792;2023-03-24T06:13:29;21.20;61.80
30244;DHT22;64022;53.652;9.792;2023-03-24T06:15:55;21.20;61.90
30244;DHT22;64022;53.652;9.792;2023-03-24T06:18:23;21.20;61.90
30244;DHT22;64022;53.652;9.792;2023-03-24T06:20:51;21.20;61.90
30244;DHT22;64022;53.652;9.792;2023-03-24T06:23:23;21.20;61.90
30244;DHT22;64022;53.652;9.792;2023-03-24T06:25:51;21.20;61.90
30244;DHT22;64022;53.652;9.792;2023-03-24T06:28:16;21.20;61.90
30244;DHT22;64022;53.652;9.792;2023-03-24T06:30:43;21.20;61.90
30244;DHT22;64022;53.652;9.792;2023-03-24T06:33:08;21.20;61.90
30244;DHT22;64022;53.652;9.792;2023-03-24T06:35:35;21.20;61.90
30244;DHT22;64022;53.652;9.792;2023-03-24T06:38:01;21.20;61.90
30244;DHT22;64022;53.652;9.792;2023-03-24T06:40:27;21.20;61.90
30244;DHT22;64022;53.652;9.792;2023-03-24T06:42:53;21.20;61.90
30244;DHT22;64022;53.652;9.792;2023-03-24T06:45:18;21.10;61.80
30244;DHT22;64022;53.652;9.792;2023-03-24T06:47:44;21.20;61.90
30244;DHT22;64022;53.652;9.792;2023-03-24T06:50:10;21.20;61.90
30244;DHT22;64022;53.652;9.792;2023-03-24T06:52:36;21.20;61.90
30244;DHT22;64022;53.652;9.792;2023-03-24T06:55:02;21.10;61.80
30244;DHT22;64022;53.652;9.792;2023-03-24T06:57:28;21.20;61.90
30244;DHT22;64022;53.652;9.792;2023-03-24T06:59:54;21.20;61.90
30244;DHT22;64022;53.652;9.792;2023-03-24T07:02:20;21.10;61.80
30244;DHT22;64022;53.652;9.792;2023-03-24T07:04:46;21.20;61.90
30244;DHT22;64022;53.652;9.792;2023-03-24T07:07:11;21.20;61.90
30244;DHT22;64022;53.652;9.792;2023-03-24T07:09:38;21.20;61.90
30244;DHT22;64022;53.652;9.792;2023-03-24T07:12:06;21.20;61.90
30244;DHT22;64022;53.652;9.792;2023-03-24T07:14:32;21.20;62.40
30244;DHT22;64022;53.652;9.792;2023-03-24T07:16:57;21.20;61.90
30244;DHT22;64022;53.652;9.792;2023-03-24T07:19:24;21.20;61.90
30244;DHT22;64022;53.652;9.792;2023-03-24T07:21:49;21.20;61.90
30244;DHT22;64022;53.652;9.792;2023-03-24T07:24:16;21.10;61.80
30244;DHT22;64022;53.652;9.792;2023-03-24T07:26:42;21.20;61.90
30244;DHT22;64022;53.652;9.792;2023-03-24T07:29:07;21.20;61.90
30244;DHT22;64022;53.652;9.792;2023-03-24T07:31:33;21.20;61.90
30244;DHT22;64022;53.652;9.792;2023-03-24T07:34:03;21.20;61.90
30244;DHT22;64022;53.652;9.792;2023-03-24T07:36:28;21.20;61.90
30244;DHT22;64022;53.652;9.792;2023-03-24T07:38:54;21.10;61.60
30244;DHT22;64022;53.652;9.792;2023-03-24T07:41:21;21.10;61.90
30244;DHT22;64022;53.652;9.792;2023-03-24T07:43:46;21.20;61.90
30244;DHT22;64022;53.652;9.792;2023-03-24T07:46:12;21.20;61.90
30244;DHT22;64022;53.652;9.792;2023-03-24T07:48:37;21.20;61.20
30244;DHT22;64022;53.652;9.792;2023-03-24T07:51:03;21.20;60.60
30244;DHT22;64022;53.652;9.792;2023-03-24T07:53:29;21.00;60.00
30244;DHT22;64022;53.652;9.792;2023-03-24T07:55:54;21.00;59.70
30244;DHT22;64022;53.652;9.792;2023-03-24T07:58:20;21.00;59.70
30244;DHT22;64022;53.652;9.792;2023-03-24T08:00:46;20.90;59.50
30244;DHT22;64022;53.652;9.792;2023-03-24T08:03:12;20.90;59.30
30244;DHT22;64022;53.652;9.792;2023-03-24T08:05:40;20.80;58.80
30244;DHT22;64022;53.652;9.792;2023-03-24T08:08:06;20.80;58.80
30244;DHT22;64022;53.652;9.792;2023-03-24T08:10:32;20.80;58.70
30244;DHT22;64022;53.652;9.792;2023-03-24T08:12:58;20.70;58.40
30244;DHT22;64022;53.652;9.792;2023-03-24T08:15:26;20.70;58.80
30244;DHT22;64022;53.652;9.792;2023-03-24T08:17:52;20.70;59.10
30244;DHT22;64022;53.652;9.792;2023-03-24T08:20:18;20.70;59.30
30244;DHT22;64022;53.652;9.792;2023-03-24T08:22:47;20.80;59.40
30244;DHT22;64022;53.652;9.792;2023-03-24T08:25:15;20.80;59.60
30244;DHT22;64022;53.652;9.792;2023-03-24T08:27:41;20.90;59.70
30244;DHT22;64022;53.652;9.792;2023-03-24T08:30:18;20.90;59.80
30244;DHT22;64022;53.652;9.792;2023-03-24T08:32:46;21.00;59.90
30244;DHT22;64022;53.652;9.792;2023-03-24T08:35:13;20.90;59.80
30244;DHT22;64022;53.652;9.792;2023-03-24T08:37:39;21.00;59.90
30244;DHT22;64022;53.652;9.792;2023-03-24T08:40:08;21.00;59.90
30244;DHT22;64022;53.652;9.792;2023-03-24T08:42:39;21.00;59.90
30244;DHT22;64022;53.652;9.792;2023-03-24T08:45:05;21.00;59.90
30244;DHT22;64022;53.652;9.792;2023-03-24T08:47:31;21.10;59.90
30244;DHT22;64022;53.652;9.792;2023-03-24T08:49:57;21.10;59.90
30244;DHT22;64022;53.652;9.792;2023-03-24T08:52:23;21.10;59.90
30244;DHT22;64022;53.652;9.792;2023-03-24T08:54:49;21.10;59.90
30244;DHT22;64022;53.652;9.792;2023-03-24T08:57:15;21.10;59.90
30244;DHT22;64022;53.652;9.792;2023-03-24T08:59:41;21.10;59.90
30244;DHT22;64022;53.652;9.792;2023-03-24T09:02:09;21.10;59.90
30244;DHT22;64022;53.652;9.792;2023-03-24T09:04:36;21.10;59.90
30244;DHT22;64022;53.652;9.792;2023-03-24T09:07:01;21.10;60.00
30244;DHT22;64022;53.652;9.792;2023-03-24T09:09:28;21.10;59.90
30244;DHT22;64022;53.652;9.792;2023-03-24T09:11:54;21.10;60.50
30244;DHT22;64022;53.652;9.792;2023-03-24T09:14:19;21.20;60.00
30244;DHT22;64022;53.652;9.792;2023-03-24T09:16:48;21.20;60.00
30244;DHT22;64022;53.652;9.792;2023-03-24T09:19:15;21.20;60.00
30244;DHT22;64022;53.652;9.792;2023-03-24T09:21:45;21.20;60.00
30244;DHT22;64022;53.652;9.792;2023-03-24T09:24:11;21.20;60.00
30244;DHT22;64022;53.652;9.792;2023-03-24T09:26:37;21.20;60.00
30244;DHT22;64022;53.652;9.792;2023-03-24T09:29:03;21.20;60.00
30244;DHT22;64022;53.652;9.792;2023-03-24T09:31:29;21.20;60.00
30244;DHT22;64022;53.652;9.792;2023-03-24T09:33:54;21.20;60.00
30244;DHT22;64022;53.652;9.792;2023-03-24T09:36:20;21.20;60.00
30244;DHT22;64022;53.652;9.792;2023-03-24T09:38:46;21.20;60.10
30244;DHT22;64022;53.652;9.792;2023-03-24T09:41:18;21.20;60.10
30244;DHT22;64022;53.652;9.792;2023-03-24T09:46:34;21.20;60.00
30244;DHT22;64022;53.652;9.792;2023-03-24T09:49:00;21.20;60.10
30244;DHT22;64022;53.652;9.792;2023-03-24T09:51:28;21.20;60.10
30244;DHT22;64022;53.652;9.792;2023-03-24T09:56:43;21.20;60.00
30244;DHT22;64022;53.652;9.792;2023-03-24T09:59:35;21.20;60.10
30244;DHT22;64022;53.652;9.792;2023-03-24T10:02:11;21.20;60.00
30244;DHT22;64022;53.652;9.792;2023-03-24T10:04:37;21.20;60.10
30244;DHT22;64022;53.652;9.792;2023-03-24T10:07:17;21.20;60.70
30244;DHT22;64022;53.652;9.792;2023-03-24T10:09:49;21.20;60.10
30244;DHT22;64022;53.652;9.792;2023-03-24T10:12:35;21.20;60.10
30244;DHT22;64022;53.652;9.792;2023-03-24T10:15:08;21.20;60.20
30244;DHT22;64022;53.652;9.792;2023-03-24T10:17:57;21.20;60.20
30244;DHT22;64022;53.652;9.792;2023-03-24T10:20:43;21.20;60.00
30244;DHT22;64022;53.652;9.792;2023-03-24T10:23:23;21.30;60.10
30244;DHT22;64022;53.652;9.792;2023-03-24T10:25:53;21.30;60.30
30244;DHT22;64022;53.652;9.792;2023-03-24T10:28:27;21.30;60.20
30244;DHT22;64022;53.652;9.792;2023-03-24T10:31:01;21.30;60.20
30244;DHT22;64022;53.652;9.792;2023-03-24T10:33:27;21.30;60.30
30244;DHT22;64022;53.652;9.792;2023-03-24T10:36:28;21.30;60.20
30244;DHT22;64022;53.652;9.792;2023-03-24T10:38:55;21.30;60.00
30244;DHT22;64022;53.652;9.792;2023-03-24T10:41:24;21.30;60.30
30244;DHT22;64022;53.652;9.792;2023-03-24T10:43:51;21.30;60.30
30244;DHT22;64022;53.652;9.792;2023-03-24T10:46:22;21.30;60.30
30244;DHT22;64022;53.652;9.792;2023-03-24T10:48:51;21.30;60.30
30244;DHT22;64022;53.652;9.792;2023-03-24T10:51:31;21.30;60.30
30244;DHT22;64022;53.652;9.792;2023-03-24T10:56:41;21.30;60.20
30244;DHT22;64022;53.652;9.792;2023-03-24T11:02:16;21.30;60.20
30244;DHT22;64022;53.652;9.792;2023-03-24T11:04:48;21.40;60.20
30244;DHT22;64022;53.652;9.792;2023-03-24T11:07:18;21.30;60.40
30244;DHT22;64022;53.652;9.792;2023-03-24T11:12:36;21.40;60.20
30244;DHT22;64022;53.652;9.792;2023-03-24T11:15:14;21.30;60.30
30244;DHT22;64022;53.652;9.792;2023-03-24T11:17:41;21.40;60.30
30244;DHT22;64022;53.652;9.792;2023-03-24T11:20:42;21.40;60.40
30244;DHT22;64022;53.652;9.792;2023-03-24T11:23:20;21.30;60.20
30244;DHT22;64022;53.652;9.792;2023-03-24T11:28:27;21.40;60.40
30244;DHT22;64022;53.652;9.792;2023-03-24T11:30:54;21.30;60.30
30244;DHT22;64022;53.652;9.792;2023-03-24T11:33:30;21.40;60.40
30244;DHT22;64022;53.652;9.792;2023-03-24T11:36:00;21.40;60.30
30244;DHT22;64022;53.652;9.792;2023-03-24T11:38:32;21.30;60.30
30244;DHT22;64022;53.652;9.792;2023-03-24T11:41:00;21.40;60.80
30244;DHT22;64022;53.652;9.792;2023-03-24T11:43:28;21.40;60.30
30244;DHT22;64022;53.652;9.792;2023-03-24T11:46:06;21.40;60.20
30244;DHT22;64022;53.652;9.792;2023-03-24T11:48:42;21.40;60.20
30244;DHT22;64022;53.652;9.792;2023-03-24T11:51:31;21.40;60.20
30244;DHT22;64022;53.652;9.792;2023-03-24T11:53:58;21.40;60.10
30244;DHT22;64022;53.652;9.792;2023-03-24T11:56:34;21.40;60.20
30244;DHT22;64022;53.652;9.792;2023-03-24T12:04:29;21.40;60.10
30244;DHT22;64022;53.652;9.792;2023-03-24T12:12:56;21.40;60.00
30244;DHT22;64022;53.652;9.792;2023-03-24T12:16:04;21.40;60.00
30244;DHT22;64022;53.652;9.792;2023-03-24T12:21:38;21.40;60.00
30244;DHT22;64022;53.652;9.792;2023-03-24T12:26:58;21.40;59.90
30244;DHT22;64022;53.652;9.792;2023-03-24T12:29:40;21.40;59.90
30244;DHT22;64022;53.652;9.792;2023-03-24T12:41:08;21.40;59.70
30244;DHT22;64022;53.652;9.792;2023-03-24T12:46:38;21.40;59.70
30244;DHT22;64022;53.652;9.792;2023-03-24T12:49:30;21.40;59.60
30244;DHT22;64022;53.652;9.792;2023-03-24T12:55:31;21.30;59.50
30244;DHT22;64022;53.652;9.792;2023-03-24T12:58:06;21.40;59.60
30244;DHT22;64022;53.652;9.792;2023-03-24T13:00:38;21.30;59.50
30244;DHT22;64022;53.652;9.792;2023-03-24T13:03:09;21.40;59.50
30244;DHT22;64022;53.652;9.792;2023-03-24T13:05:47;21.40;59.50
30244;DHT22;64022;53.652;9.792;2023-03-24T13:08:20;21.40;59.40
30244;DHT22;64022;53.652;9.792;2023-03-24T13:10:49;21.40;59.40
30244;DHT22;64022;53.652;9.792;2023-03-24T13:13:24;21.40;59.40
30244;DHT22;64022;53.652;9.792;2023-03-24T13:15:53;21.40;59.30
30244;DHT22;64022;53.652;9.792;2023-03-24T13:18:48;21.40;59.20
30244;DHT22;64022;53.652;9.792;2023-03-24T13:21:17;21.40;59.20
30244;DHT22;64022;53.652;9.792;2023-03-24T13:23:53;21.40;59.20
30244;DHT22;64022;53.652;9.792;2023-03-24T13:26:49;21.40;59.10
30244;DHT22;64022;53.652;9.792;2023-03-24T13:37:38;21.10;55.50
30244;DHT22;64022;53.652;9.792;2023-03-24T13:40:09;21.10;54.40
30244;DHT22;64022;53.652;9.792;2023-03-24T13:42:42;21.00;53.60
30244;DHT22;64022;53.652;9.792;2023-03-24T13:45:36;20.90;53.40
30244;DHT22;64022;53.652;9.792;2023-03-24T13:53:29;20.80;52.80
30244;DHT22;64022;53.652;9.792;2023-03-24T13:55:55;20.80;51.50
30244;DHT22;64022;53.652;9.792;2023-03-24T13:58:22;20.70;51.40
30244;DHT22;64022;53.652;9.792;2023-03-24T14:01:04;20.70;51.00
30244;DHT22;64022;53.652;9.792;2023-03-24T14:03:32;20.70;51.20
30244;DHT22;64022;53.652;9.792;2023-03-24T14:06:03;20.70;50.40
30244;DHT22;64022;53.652;9.792;2023-03-24T14:09:03;20.60;50.10
30244;DHT22;64022;53.652;9.792;2023-03-24T14:16:48;20.60;49.50
30244;DHT22;64022;53.652;9.792;2023-03-24T14:19:26;20.60;49.30
30244;DHT22;64022;53.652;9.792;2023-03-24T14:24:28;20.50;48.90
30244;DHT22;64022;53.652;9.792;2023-03-24T14:26:55;20.50;48.70
30244;DHT22;64022;53.652;9.792;2023-03-24T14:29:40;20.40;48.40
30244;DHT22;64022;53.652;9.792;2023-03-24T14:32:15;20.40;48.80
30244;DHT22;64022;53.652;9.792;2023-03-24T14:34:53;20.40;48.30
30244;DHT22;64022;53.652;9.792;2023-03-24T14:37:20;20.40;48.00
30244;DHT22;64022;53.652;9.792;2023-03-24T14:39:47;20.30;47.50
30244;DHT22;64022;53.652;9.792;2023-03-24T14:44:59;20.30;47.90
30244;DHT22;64022;53.652;9.792;2023-03-24T14:47:33;20.20;47.60
30244;DHT22;64022;53.652;9.792;2023-03-24T14:50:16;20.20;47.60
30244;DHT22;64022;53.652;9.792;2023-03-24T14:52:49;20.30;48.00
30244;DHT22;64022;53.652;9.792;2023-03-24T14:55:16;20.30;48.20
30244;DHT22;64022;53.652;9.792;2023-03-24T14:57:51;20.30;48.30
30244;DHT22;64022;53.652;9.792;2023-03-24T15:00:41;20.40;48.50
30244;DHT22;64022;53.652;9.792;2023-03-24T15:06:20;20.50;48.70
30244;DHT22;64022;53.652;9.792;2023-03-24T15:08:51;20.50;48.90
30244;DHT22;64022;53.652;9.792;2023-03-24T15:11:27;20.50;48.90
30244;DHT22;64022;53.652;9.792;2023-03-24T15:13:55;20.50;49.00
30244;DHT22;64022;53.652;9.792;2023-03-24T15:16:27;20.60;49.10
30244;DHT22;64022;53.652;9.792;2023-03-24T15:19:08;20.60;49.10
30244;DHT22;64022;53.652;9.792;2023-03-24T15:21:40;20.60;49.20
30244;DHT22;64022;53.652;9.792;2023-03-24T15:26:46;20.70;49.30
30244;DHT22;64022;53.652;9.792;2023-03-24T15:29:12;20.70;49.40
30244;DHT22;64022;53.652;9.792;2023-03-24T15:31:38;20.70;49.40
30244;DHT22;64022;53.652;9.792;2023-03-24T15:34:24;20.70;49.40
30244;DHT22;64022;53.652;9.792;2023-03-24T15:37:20;20.70;49.40
30244;DHT22;64022;53.652;9.792;2023-03-24T15:39:51;20.70;49.40
30244;DHT22;64022;53.652;9.792;2023-03-24T15:42:20;20.80;49.60
30244;DHT22;64022;53.652;9.792;2023-03-24T15:44:46;20.80;49.60
30244;DHT22;64022;53.652;9.792;2023-03-24T15:47:28;20.80;49.60
30244;DHT22;64022;53.652;9.792;2023-03-24T15:49:59;20.80;49.60
30244;DHT22;64022;53.652;9.792;2023-03-24T15:54:55;20.80;49.80
30244;DHT22;64022;53.652;9.792;2023-03-24T15:57:23;20.90;49.90
30244;DHT22;64022;53.652;9.792;2023-03-24T16:00:02;20.80;49.80
30244;DHT22;64022;53.652;9.792;2023-03-24T16:02:40;20.90;49.90
30244;DHT22;64022;53.652;9.792;2023-03-24T16:05:20;20.90;49.90
30244;DHT22;64022;53.652;9.792;2023-03-24T16:08:02;20.90;49.90
30244;DHT22;64022;53.652;9.792;2023-03-24T16:10:36;20.90;50.00
30244;DHT22;64022;53.652;9.792;2023-03-24T16:13:18;20.90;50.00
30244;DHT22;64022;53.652;9.792;2023-03-24T16:16:09;20.90;50.10
30244;DHT22;64022;53.652;9.792;2023-03-24T16:18:47;20.90;50.00
30244;DHT22;64022;53.652;9.792;2023-03-24T16:23:38;20.90;50.30
30244;DHT22;64022;53.652;9.792;2023-03-24T16:26:27;20.90;50.30
30244;DHT22;64022;53.652;9.792;2023-03-24T16:28:54;20.90;50.40
30244;DHT22;64022;53.652;9.792;2023-03-24T16:31:26;21.00;50.60
30244;DHT22;64022;53.652;9.792;2023-03-24T16:33:55;20.90;50.60
30244;DHT22;64022;53.652;9.792;2023-03-24T16:36:20;21.00;50.70
30244;DHT22;64022;53.652;9.792;2023-03-24T16:38:48;21.00;50.70
30244;DHT22;64022;53.652;9.792;2023-03-24T16:41:15;21.00;50.30
30244;DHT22;64022;53.652;9.792;2023-03-24T16:43:41;21.00;50.90
30244;DHT22;64022;53.652;9.792;2023-03-24T16:46:17;21.00;51.00
30244;DHT22;64022;53.652;9.792;2023-03-24T16:48:45;20.90;50.80
30244;DHT22;64022;53.652;9.792;2023-03-24T16:51:12;21.00;51.10
30244;DHT22;64022;53.652;9.792;2023-03-24T16:53:39;21.00;51.20
30244;DHT22;64022;53.652;9.792;2023-03-24T16:56:05;21.00;51.20
30244;DHT22;64022;53.652;9.792;2023-03-24T16:58:31;21.00;51.30
30244;DHT22;64022;53.652;9.792;2023-03-24T17:00:57;21.00;51.40
30244;DHT22;64022;53.652;9.792;2023-03-24T17:03:26;21.00;51.40
30244;DHT22;64022;53.652;9.792;2023-03-24T17:05:55;21.00;51.50
30244;DHT22;64022;53.652;9.792;2023-03-24T17:08:22;21.10;51.60
30244;DHT22;64022;53.652;9.792;2023-03-24T17:10:50;21.00;51.60
30244;DHT22;64022;53.652;9.792;2023-03-24T17:13:22;21.10;51.70
30244;DHT22;64022;53.652;9.792;2023-03-24T17:15:48;21.10;51.80
30244;DHT22;64022;53.652;9.792;2023-03-24T17:18:14;21.10;51.90
30244;DHT22;64022;53.652;9.792;2023-03-24T17:20:40;21.10;51.90
30244;DHT22;64022;53.652;9.792;2023-03-24T17:23:09;21.10;52.00
30244;DHT22;64022;53.652;9.792;2023-03-24T17:25:35;21.10;52.00
30244;DHT22;64022;53.652;9.792;2023-03-24T17:28:01;21.10;52.10
30244;DHT22;64022;53.652;9.792;2023-03-24T17:30:28;21.10;52.10
30244;DHT22;64022;53.652;9.792;2023-03-24T17:32:54;21.10;52.20
30244;DHT22;64022;53.652;9.792;2023-03-24T17:35:22;21.10;52.30
30244;DHT22;64022;53.652;9.792;2023-03-24T17:37:48;21.10;52.40
30244;DHT22;64022;53.652;9.792;2023-03-24T17:40:15;21.10;52.40
30244;DHT22;64022;53.652;9.792;2023-03-24T17:42:42;21.20;52.60
30244;DHT22;64022;53.652;9.792;2023-03-24T17:45:11;21.20;52.70
30244;DHT22;64022;53.652;9.792;2023-03-24T17:47:37;21.20;52.70
30244;DHT22;64022;53.652;9.792;2023-03-24T17:50:04;21.20;52.80
30244;DHT22;64022;53.652;9.792;2023-03-24T17:52:45;21.20;52.80
30244;DHT22;64022;53.652;9.792;2023-03-24T17:55:13;21.20;52.80
30244;DHT22;64022;53.652;9.792;2023-03-24T17:57:38;21.20;53.00
30244;DHT22;64022;53.652;9.792;2023-03-24T18:00:05;21.20;53.10